createdAt,value
2019-02-17T00:01:39.408Z,92.90
2019-02-17T00:04:07.708Z,78.87
2019-02-17T00:06:35.443Z,93.33
2019-02-17T00:09:04.851Z,108.53
2019-02-17T00:11:32.568Z,107.23
2019-02-17T00:14:00.495Z,86.07
2019-02-17T00:16:28.460Z,77.73
2019-02-17T00:18:56.152Z,78.93
2019-02-17T00:21:23.904Z,88.40
2019-02-17T00:23:51.660Z,80.83
2019-02-17T00:26:19.432Z,76.70
2019-02-17T00:28:47.192Z,78.97
2019-02-17T00:31:14.843Z,77.73
2019-02-17T00:33:42.638Z,74.43
2019-02-17T00:36:10.494Z,72.33
2019-02-17T00:38:38.265Z,69.87
2019-02-17T00:41:06.130Z,74.07
2019-02-17T00:43:33.795Z,72.50
2019-02-17T00:46:01.764Z,67.37
2019-02-17T00:48:29.540Z,66.33
2019-02-17T00:50:57.301Z,73.83
2019-02-17T00:53:25.163Z,71.37
2019-02-17T00:55:53.032Z,72.57
2019-02-17T00:58:20.675Z,67.07
2019-02-17T01:00:48.348Z,73.93
2019-02-17T01:03:16.111Z,78.07
2019-02-17T01:05:43.902Z,77.40
2019-02-17T01:08:11.655Z,81.07
2019-02-17T01:10:39.424Z,79.23
2019-02-17T01:13:07.397Z,73.70
2019-02-17T01:15:35.153Z,70.13
2019-02-17T01:18:03.038Z,76.07
2019-02-17T01:20:30.894Z,69.37
2019-02-17T01:22:58.660Z,79.30
2019-02-17T01:25:26.437Z,70.10
2019-02-17T01:27:54.195Z,74.20
2019-02-17T01:30:21.966Z,78.57
2019-02-17T01:32:49.666Z,78.10
2019-02-17T01:35:17.395Z,70.17
2019-02-17T01:37:45.034Z,74.97
2019-02-17T01:40:12.699Z,72.23
2019-02-17T01:42:40.474Z,71.47
2019-02-17T01:45:08.956Z,78.07
2019-02-17T01:47:36.629Z,72.80
2019-02-17T01:50:06.969Z,79.90
2019-02-17T01:52:34.824Z,73.47
2019-02-17T01:55:02.794Z,77.93
2019-02-17T01:57:30.548Z,78.33
2019-02-17T01:59:58.325Z,78.53
2019-02-17T02:02:26.016Z,74.60
2019-02-17T02:04:53.749Z,82.93
2019-02-17T02:07:21.526Z,77.40
2019-02-17T02:09:49.389Z,75.07
2019-02-17T02:12:17.143Z,83.20
2019-02-17T02:14:44.818Z,81.63
2019-02-17T02:17:26.122Z,81.87
2019-02-17T02:19:53.964Z,78.63
2019-02-17T02:22:21.734Z,77.60
2019-02-17T02:24:49.494Z,75.57
2019-02-17T02:27:17.363Z,80.50
2019-02-17T02:29:45.144Z,77.47
2019-02-17T02:32:12.880Z,79.33
2019-02-17T02:34:40.677Z,81.23
2019-02-17T02:37:08.411Z,77.77
2019-02-17T02:39:36.209Z,72.97
2019-02-17T02:42:03.884Z,69.00
2019-02-17T02:44:31.728Z,72.10
2019-02-17T02:46:59.495Z,70.57
2019-02-17T02:49:27.344Z,77.70
2019-02-17T02:51:55.231Z,67.27
2019-02-17T02:54:22.996Z,70.37
2019-02-17T02:56:50.779Z,76.43
2019-02-17T02:59:18.642Z,71.90
2019-02-17T03:01:46.397Z,69.00
2019-02-17T03:04:14.077Z,77.73
2019-02-17T03:06:46.635Z,75.50
2019-02-17T03:09:14.508Z,73.63
2019-02-17T03:11:42.153Z,76.07
2019-02-17T03:14:10.042Z,70.03
2019-02-17T03:16:37.908Z,69.73
2019-02-17T03:19:05.543Z,69.63
2019-02-17T03:21:33.189Z,75.60
2019-02-17T03:24:01.104Z,73.87
2019-02-17T03:26:28.756Z,67.07
2019-02-17T03:28:56.716Z,69.90
2019-02-17T03:31:24.502Z,67.47
2019-02-17T03:33:52.268Z,71.13
2019-02-17T03:36:20.139Z,71.43
2019-02-17T03:38:47.861Z,71.90
2019-02-17T03:41:15.680Z,72.00
2019-02-17T03:43:43.541Z,69.93
2019-02-17T03:46:11.384Z,71.67
2019-02-17T03:48:39.047Z,67.10
2019-02-17T03:51:06.727Z,72.33
2019-02-17T03:53:34.903Z,73.27
2019-02-17T03:56:02.669Z,70.70
2019-02-17T03:58:30.317Z,75.53
2019-02-17T04:00:58.052Z,68.43
2019-02-17T04:03:25.869Z,70.17
2019-02-17T04:05:53.629Z,67.63
2019-02-17T04:08:21.500Z,69.83
2019-02-17T04:10:49.265Z,67.67
2019-02-17T04:13:17.137Z,69.00
2019-02-17T04:15:44.897Z,72.37
2019-02-17T04:18:12.665Z,71.37
2019-02-17T04:20:40.415Z,60.87
2019-02-17T04:23:08.302Z,72.83
2019-02-17T04:25:36.051Z,66.97
2019-02-17T04:28:03.939Z,64.07
2019-02-17T04:30:31.713Z,73.60
2019-02-17T04:32:59.447Z,71.37
2019-02-17T04:35:27.099Z,64.17
2019-02-17T04:37:54.934Z,71.47
2019-02-17T04:40:22.761Z,67.00
2019-02-17T04:42:50.425Z,74.00
2019-02-17T04:45:18.137Z,67.47
2019-02-17T04:47:45.854Z,71.73
2019-02-17T04:50:13.616Z,67.97
2019-02-17T04:52:41.433Z,65.63
2019-02-17T04:55:09.263Z,73.43
2019-02-17T04:57:36.895Z,66.10
2019-02-17T05:00:06.838Z,69.12
2019-02-17T05:02:34.610Z,62.17
2019-02-17T05:05:02.476Z,66.43
2019-02-17T05:07:30.445Z,70.53
2019-02-17T05:09:58.315Z,61.97
2019-02-17T05:12:26.079Z,68.20
2019-02-17T05:14:53.850Z,61.70
2019-02-17T05:17:21.713Z,68.20
2019-02-17T05:19:49.355Z,70.27
2019-02-17T05:22:17.209Z,61.83
2019-02-17T05:24:44.929Z,68.33
2019-02-17T05:27:12.777Z,59.10
2019-02-17T05:29:40.642Z,70.60
2019-02-17T05:32:08.288Z,62.57
2019-02-17T05:34:36.078Z,62.57
2019-02-17T05:37:03.833Z,63.53
2019-02-17T05:39:31.609Z,67.03
2019-02-17T05:41:59.292Z,65.90
2019-02-17T05:44:27.034Z,65.20
2019-02-17T05:46:54.796Z,61.37
2019-02-17T05:49:22.405Z,66.13
2019-02-17T05:51:50.118Z,63.43
2019-02-17T05:54:17.992Z,59.13
2019-02-17T05:56:45.756Z,67.67
2019-02-17T05:59:13.525Z,57.67
2019-02-17T06:01:41.401Z,64.70
2019-02-17T06:04:09.266Z,63.67
2019-02-17T06:06:36.908Z,65.30
2019-02-17T06:09:05.514Z,60.87
2019-02-17T06:11:33.327Z,63.70
2019-02-17T06:14:01.031Z,68.17
2019-02-17T06:16:28.724Z,61.20
2019-02-17T06:18:56.455Z,60.07
2019-02-17T06:21:24.243Z,68.30
2019-02-17T06:23:51.994Z,62.63
2019-02-17T06:26:19.768Z,61.87
2019-02-17T06:28:47.436Z,66.07
2019-02-17T06:31:15.196Z,73.90
2019-02-17T06:33:42.963Z,63.87
2019-02-17T06:36:10.939Z,70.30
2019-02-17T06:38:38.877Z,79.63
2019-02-17T06:41:06.662Z,73.73
2019-02-17T06:43:34.616Z,88.33
2019-02-17T06:46:02.538Z,71.87
2019-02-17T06:48:30.389Z,66.03
2019-02-17T06:50:58.254Z,75.23
2019-02-17T06:53:26.120Z,73.97
2019-02-17T06:55:58.286Z,141.13
2019-02-17T06:58:25.936Z,127.73
2019-02-17T07:00:53.713Z,103.50
2019-02-17T07:03:21.479Z,93.60
2019-02-17T07:05:53.341Z,89.07
2019-02-17T07:08:21.123Z,77.70
2019-02-17T07:10:48.788Z,73.33
2019-02-17T07:13:16.553Z,72.63
2019-02-17T07:15:44.304Z,76.27
2019-02-17T07:18:12.177Z,67.50
2019-02-17T07:20:40.045Z,69.70
2019-02-17T07:23:08.071Z,77.40
2019-02-17T07:25:35.980Z,67.77
2019-02-17T07:28:03.954Z,73.80
2019-02-17T07:30:31.854Z,69.33
2019-02-17T07:32:59.693Z,70.70
2019-02-17T07:35:27.367Z,67.47
2019-02-17T07:37:55.125Z,72.73
2019-02-17T07:40:22.992Z,69.43
2019-02-17T07:42:50.741Z,68.00
2019-02-17T07:45:18.524Z,64.70
2019-02-17T07:47:46.236Z,76.37
2019-02-17T07:50:14.157Z,58.97
2019-02-17T07:52:41.922Z,65.80
2019-02-17T07:55:10.384Z,54.17
2019-02-17T07:57:38.169Z,58.63
2019-02-17T08:00:07.323Z,60.73
2019-02-17T08:02:35.027Z,63.53
2019-02-17T08:05:02.667Z,62.57
2019-02-17T08:07:30.452Z,63.33
2019-02-17T08:10:00.570Z,61.73
2019-02-17T08:12:27.649Z,61.07
2019-02-17T08:14:55.501Z,57.93
2019-02-17T08:17:23.368Z,54.93
2019-02-17T08:19:51.135Z,58.37
2019-02-17T08:22:18.811Z,49.77
2019-02-17T08:24:46.668Z,51.67
2019-02-17T08:27:14.429Z,51.67
2019-02-17T08:29:42.296Z,55.63
2019-02-17T08:32:10.061Z,56.53
2019-02-17T08:34:37.841Z,62.90
2019-02-17T08:37:05.593Z,65.40
2019-02-17T08:39:33.462Z,69.37
2019-02-17T08:42:01.335Z,54.20
2019-02-17T08:44:29.109Z,59.20
2019-02-17T08:46:56.970Z,63.00
2019-02-17T08:49:24.736Z,59.10
2019-02-17T08:51:52.375Z,53.03
2019-02-17T08:54:20.184Z,59.37
2019-02-17T08:56:48.031Z,63.53
2019-02-17T08:59:15.794Z,59.70
2019-02-17T09:01:43.667Z,53.57
2019-02-17T09:04:11.552Z,55.23
2019-02-17T09:06:39.228Z,53.13
2019-02-17T09:09:06.976Z,51.53
2019-02-17T09:11:34.728Z,52.50
2019-02-17T09:14:02.479Z,58.37
2019-02-17T09:16:30.257Z,54.23
2019-02-17T09:18:58.130Z,58.17
2019-02-17T09:21:26.097Z,62.60
2019-02-17T09:23:53.975Z,85.10
2019-02-17T09:26:21.696Z,73.53
2019-02-17T09:28:49.380Z,64.57
2019-02-17T09:31:17.170Z,56.27
2019-02-17T09:33:44.933Z,56.17
2019-02-17T09:36:12.592Z,59.73
2019-02-17T09:38:40.235Z,64.40
2019-02-17T09:41:08.122Z,58.80
2019-02-17T09:43:35.792Z,47.17
2019-02-17T09:46:03.552Z,38.33
2019-02-17T09:48:31.326Z,43.47
2019-02-17T09:50:59.189Z,48.83
2019-02-17T09:53:27.055Z,41.03
2019-02-17T09:55:55.209Z,39.17
2019-02-17T09:58:23.055Z,39.00
2019-02-17T10:00:50.861Z,37.50
2019-02-17T10:03:18.631Z,42.20
2019-02-17T10:05:46.402Z,39.57
2019-02-17T10:08:14.165Z,37.57
2019-02-17T10:10:41.913Z,31.43
2019-02-17T10:13:09.690Z,36.67
2019-02-17T10:15:37.465Z,37.07
2019-02-17T10:18:05.372Z,37.23
2019-02-17T10:20:33.096Z,36.87
2019-02-17T10:23:00.757Z,36.43
2019-02-17T10:25:28.628Z,35.00
2019-02-17T10:27:56.490Z,32.50
2019-02-17T10:30:24.360Z,34.30
2019-02-17T10:32:52.131Z,33.63
2019-02-17T10:35:19.852Z,33.63
2019-02-17T10:37:47.666Z,32.73
2019-02-17T10:40:16.783Z,32.83
2019-02-17T10:42:44.505Z,35.03
2019-02-17T10:45:12.902Z,31.00
2019-02-17T10:47:40.678Z,35.17
2019-02-17T10:50:13.048Z,32.93
2019-02-17T10:52:40.913Z,33.47
2019-02-17T10:55:09.674Z,29.37
2019-02-17T10:57:37.461Z,30.67
2019-02-17T11:00:08.874Z,31.35
2019-02-17T11:02:46.404Z,28.23
2019-02-17T11:05:06.805Z,34.00
2019-02-17T11:07:34.671Z,31.83
2019-02-17T11:10:02.628Z,30.90
2019-02-17T11:12:30.514Z,32.73
2019-02-17T11:14:58.379Z,35.43
2019-02-17T11:17:26.454Z,36.93
2019-02-17T11:19:54.222Z,32.20
2019-02-17T11:22:23.397Z,35.63
2019-02-17T11:24:51.251Z,37.70
2019-02-17T11:27:19.050Z,37.53
2019-02-17T11:29:46.799Z,37.17
2019-02-17T11:32:14.589Z,37.43
2019-02-17T11:34:42.450Z,32.53
2019-02-17T11:37:10.204Z,33.40
2019-02-17T11:39:38.090Z,34.10
2019-02-17T11:42:05.767Z,34.10
2019-02-17T11:44:33.536Z,28.50
2019-02-17T11:47:01.387Z,29.10
2019-02-17T11:49:29.136Z,29.13
2019-02-17T11:51:56.816Z,23.47
2019-02-17T11:54:24.537Z,28.17
2019-02-17T11:56:52.360Z,28.43
2019-02-17T11:59:20.211Z,25.43
2019-02-17T12:01:48.082Z,30.23
2019-02-17T12:04:15.956Z,25.23
2019-02-17T12:06:43.821Z,26.80
2019-02-17T12:09:12.196Z,28.60
2019-02-17T12:11:40.070Z,27.37
2019-02-17T12:14:07.831Z,31.80
2019-02-17T12:16:37.236Z,32.77
2019-02-17T12:19:05.513Z,29.27
2019-02-17T12:21:37.688Z,31.87
2019-02-17T12:24:12.834Z,36.47
2019-02-17T12:26:42.141Z,30.87
2019-02-17T12:29:11.410Z,27.73
2019-02-17T12:31:39.811Z,34.17
2019-02-17T12:34:07.572Z,31.50
2019-02-17T12:36:36.369Z,29.50
2019-02-17T12:39:05.971Z,33.87
2019-02-17T12:41:33.817Z,31.70
2019-02-17T12:44:01.711Z,38.43
2019-02-17T12:46:29.580Z,30.93
2019-02-17T12:48:57.448Z,33.50
2019-02-17T12:51:25.317Z,34.43
2019-02-17T12:53:53.015Z,34.43
2019-02-17T12:56:20.740Z,76.13
2019-02-17T12:58:48.403Z,64.07
2019-02-17T13:01:16.182Z,41.60
2019-02-17T13:03:44.140Z,27.97
2019-02-17T13:06:11.792Z,35.47
2019-02-17T13:08:39.681Z,31.93
2019-02-17T13:11:07.443Z,32.37
2019-02-17T13:13:35.511Z,33.20
2019-02-17T13:16:03.184Z,35.60
2019-02-17T13:18:30.940Z,28.57
2019-02-17T13:20:58.624Z,37.50
2019-02-17T13:23:26.488Z,25.70
2019-02-17T13:25:54.177Z,37.97
2019-02-17T13:28:21.922Z,58.30
2019-02-17T13:30:49.655Z,30.83
2019-02-17T13:33:17.436Z,29.57
2019-02-17T13:35:45.200Z,27.43
2019-02-17T13:38:13.067Z,25.43
2019-02-17T13:40:40.940Z,26.10
2019-02-17T13:43:08.687Z,28.43
2019-02-17T13:45:36.348Z,25.20
2019-02-17T13:48:04.024Z,25.93
2019-02-17T13:50:31.700Z,27.33
2019-02-17T13:52:59.569Z,27.63
2019-02-17T13:55:27.327Z,24.87
2019-02-17T13:57:55.101Z,24.10
2019-02-17T14:00:22.731Z,25.07
2019-02-17T14:02:50.517Z,28.87
2019-02-17T14:05:18.273Z,35.83
2019-02-17T14:07:46.163Z,25.37
2019-02-17T14:10:14.116Z,23.67
2019-02-17T14:12:42.000Z,34.43
2019-02-17T14:15:11.092Z,28.07
2019-02-17T14:17:38.959Z,32.57
2019-02-17T14:20:07.852Z,30.57
2019-02-17T14:22:35.604Z,36.07
2019-02-17T14:25:03.696Z,32.53
2019-02-17T14:27:31.667Z,35.47
2019-02-17T14:29:59.530Z,38.53
2019-02-17T14:32:27.501Z,45.33
2019-02-17T14:34:55.152Z,38.83
2019-02-17T14:37:22.924Z,33.90
2019-02-17T14:39:50.699Z,32.90
2019-02-17T14:42:18.575Z,38.93
2019-02-17T14:44:46.336Z,111.93
2019-02-17T14:47:14.192Z,74.17
2019-02-17T14:49:41.847Z,61.27
2019-02-17T14:52:09.628Z,44.67
2019-02-17T14:54:37.380Z,46.73
2019-02-17T14:57:05.112Z,35.03
2019-02-17T14:59:32.807Z,35.57
2019-02-17T15:02:00.590Z,39.50
2019-02-17T15:04:28.477Z,106.83
2019-02-17T15:06:56.221Z,111.10
2019-02-17T15:09:24.005Z,72.47
2019-02-17T15:11:51.825Z,55.00
2019-02-17T15:14:19.623Z,31.40
2019-02-17T15:16:47.516Z,36.70
2019-02-17T15:19:15.241Z,29.53
2019-02-17T15:21:43.032Z,36.40
2019-02-17T15:24:10.794Z,33.17
2019-02-17T15:26:38.548Z,43.53
2019-02-17T15:29:06.325Z,40.97
2019-02-17T15:31:34.189Z,46.60
2019-02-17T15:34:02.010Z,51.40
2019-02-17T15:36:30.352Z,42.50
2019-02-17T15:38:58.013Z,46.40
2019-02-17T15:41:25.773Z,46.83
2019-02-17T15:43:53.524Z,35.03
2019-02-17T15:46:23.145Z,37.77
2019-02-17T15:48:50.905Z,42.10
2019-02-17T15:51:18.688Z,40.57
2019-02-17T15:53:46.323Z,45.80
2019-02-17T15:56:14.105Z,77.67
2019-02-17T15:58:41.851Z,69.07
2019-02-17T16:01:09.738Z,69.20
2019-02-17T16:03:37.505Z,67.83
2019-02-17T16:06:05.476Z,59.43
2019-02-17T16:08:33.447Z,58.93
2019-02-17T16:11:01.195Z,131.87
2019-02-17T16:13:29.097Z,91.97
2019-02-17T16:15:56.946Z,37.13
2019-02-17T16:18:24.716Z,32.57
2019-02-17T16:20:52.584Z,30.23
2019-02-17T16:23:20.352Z,27.00
2019-02-17T16:25:48.108Z,30.47
2019-02-17T16:28:16.388Z,29.70
2019-02-17T16:30:44.152Z,22.93
2019-02-17T16:33:11.924Z,25.77
2019-02-17T16:35:39.671Z,20.17
2019-02-17T16:38:07.567Z,24.37
2019-02-17T16:40:35.324Z,22.20
2019-02-17T16:43:03.103Z,22.23
2019-02-17T16:45:30.855Z,26.00
2019-02-17T16:47:58.614Z,24.60
2019-02-17T16:50:27.204Z,21.17
2019-02-17T16:52:55.179Z,28.60
2019-02-17T16:55:22.940Z,29.37
2019-02-17T16:57:50.719Z,34.50
2019-02-17T17:00:23.029Z,33.03
2019-02-17T17:02:51.576Z,51.90
2019-02-17T17:05:19.271Z,64.57
2019-02-17T17:07:46.992Z,61.27
2019-02-17T17:10:14.638Z,51.13
2019-02-17T17:12:42.312Z,55.57
2019-02-17T17:15:10.297Z,44.67
2019-02-17T17:17:38.165Z,46.07
2019-02-17T17:20:10.224Z,48.67
2019-02-17T17:22:38.100Z,67.10
2019-02-17T17:25:07.399Z,54.00
2019-02-17T17:27:35.164Z,56.47
2019-02-17T17:30:02.808Z,54.00
2019-02-17T17:32:30.592Z,53.00
2019-02-17T17:34:59.145Z,32.17
2019-02-17T17:37:27.264Z,36.07
2019-02-17T17:39:55.115Z,32.37
2019-02-17T17:42:22.988Z,36.87
2019-02-17T17:44:50.881Z,35.70
2019-02-17T17:47:18.828Z,44.20
2019-02-17T17:49:46.588Z,68.70
2019-02-17T17:52:14.462Z,80.50
2019-02-17T17:54:42.207Z,74.60
2019-02-17T17:57:09.977Z,69.27
2019-02-17T17:59:37.624Z,54.60
2019-02-17T18:02:05.513Z,51.40
2019-02-17T18:04:33.392Z,59.43
2019-02-17T18:07:01.040Z,356.03
2019-02-17T18:09:28.707Z,109.73
2019-02-17T18:11:56.584Z,54.40
2019-02-17T18:14:24.321Z,75.57
2019-02-17T18:16:52.015Z,51.43
2019-02-17T18:19:19.679Z,35.63
2019-02-17T18:21:47.388Z,164.47
2019-02-17T18:24:15.213Z,101.20
2019-02-17T18:26:42.863Z,129.33
2019-02-17T18:29:10.642Z,75.63
2019-02-17T18:31:38.511Z,41.87
2019-02-17T18:34:06.297Z,55.43
2019-02-17T18:36:34.037Z,39.00
2019-02-17T18:39:01.909Z,44.17
2019-02-17T18:41:29.778Z,51.67
2019-02-17T18:43:57.643Z,38.27
2019-02-17T18:46:26.478Z,53.20
2019-02-17T18:48:54.297Z,56.37
2019-02-17T18:51:21.948Z,44.43
2019-02-17T18:53:49.731Z,48.20
2019-02-17T18:56:17.496Z,46.40
2019-02-17T18:58:45.348Z,46.33
2019-02-17T19:01:13.239Z,51.87
2019-02-17T19:03:41.100Z,44.67
2019-02-17T19:06:08.867Z,52.00
2019-02-17T19:08:36.628Z,58.10
2019-02-17T19:11:04.468Z,56.87
2019-02-17T19:13:32.203Z,65.30
2019-02-17T19:15:59.925Z,55.80
2019-02-17T19:18:27.695Z,53.77
2019-02-17T19:20:55.456Z,59.30
2019-02-17T19:23:23.335Z,60.50
2019-02-17T19:25:51.097Z,60.90
2019-02-17T19:28:18.883Z,54.87
2019-02-17T19:30:46.750Z,44.77
2019-02-17T19:33:14.705Z,49.57
2019-02-17T19:35:42.575Z,62.20
2019-02-17T19:38:10.279Z,59.00
2019-02-17T19:40:38.100Z,60.20
2019-02-17T19:43:05.750Z,61.90
2019-02-17T19:45:33.739Z,61.23
2019-02-17T19:48:01.513Z,56.33
2019-02-17T19:50:29.372Z,60.87
2019-02-17T19:52:57.145Z,56.40
2019-02-17T19:55:25.003Z,40.30
2019-02-17T19:57:52.875Z,29.03
2019-02-17T20:00:22.513Z,31.27
2019-02-17T20:02:51.761Z,27.57
2019-02-17T20:05:35.247Z,37.70
2019-02-17T20:08:02.685Z,40.03
2019-02-17T20:10:30.423Z,50.70
2019-02-17T20:12:58.072Z,74.40
2019-02-17T20:15:27.320Z,117.37
2019-02-17T20:17:56.622Z,129.53
2019-02-17T20:20:24.580Z,101.47
2019-02-17T20:22:52.448Z,90.73
2019-02-17T20:25:20.183Z,85.60
2019-02-17T20:30:20.913Z,82.40
2019-02-17T20:32:48.729Z,151.63
2019-02-17T20:35:16.842Z,116.83
2019-02-17T20:37:44.485Z,73.77
2019-02-17T20:40:13.022Z,56.00
2019-02-17T20:42:40.752Z,49.67
2019-02-17T20:45:09.533Z,57.33
2019-02-17T20:47:37.624Z,81.53
2019-02-17T20:50:10.247Z,70.00
2019-02-17T20:52:37.939Z,74.63
2019-02-17T20:55:06.963Z,82.50
2019-02-17T20:57:34.938Z,79.60
2019-02-17T21:00:03.028Z,84.93
2019-02-17T21:02:30.753Z,82.53
2019-02-17T21:04:58.391Z,94.67
2019-02-17T21:07:26.478Z,80.13
2019-02-17T21:09:54.209Z,63.30
2019-02-17T21:12:21.929Z,45.73
2019-02-17T21:14:49.629Z,51.00
2019-02-17T21:17:17.761Z,53.68
2019-02-17T21:19:45.834Z,68.67
2019-02-17T21:22:13.558Z,72.63
2019-02-17T21:24:41.241Z,79.80
2019-02-17T21:27:09.327Z,78.40
2019-02-17T21:29:38.460Z,84.87
2019-02-17T21:32:06.906Z,99.67
2019-02-17T21:34:34.678Z,107.67
2019-02-17T21:37:02.365Z,103.07
2019-02-17T21:39:30.098Z,119.63
2019-02-17T21:41:57.737Z,136.83
2019-02-17T21:44:25.387Z,179.80
2019-02-17T21:46:53.089Z,157.80
2019-02-17T21:49:20.777Z,115.40
2019-02-17T21:51:48.500Z,100.57
2019-02-17T21:54:16.632Z,97.30
2019-02-17T21:56:44.360Z,104.93
2019-02-17T21:59:12.457Z,98.60
2019-02-17T22:01:40.367Z,121.00
2019-02-17T22:04:08.041Z,109.23
2019-02-17T22:06:35.777Z,92.63
2019-02-17T22:09:05.070Z,122.43
2019-02-17T22:11:33.301Z,141.43
2019-02-17T22:14:01.040Z,190.33
2019-02-17T22:16:28.706Z,191.07
2019-02-17T22:18:56.808Z,178.43
2019-02-17T22:21:24.499Z,172.00
2019-02-17T22:23:52.186Z,183.00
2019-02-17T22:26:20.152Z,174.37
2019-02-17T22:28:47.834Z,212.23
2019-02-17T22:31:15.526Z,200.07
2019-02-17T22:33:43.664Z,173.03
2019-02-17T22:36:11.379Z,151.23
2019-02-17T22:38:39.017Z,171.90
2019-02-17T22:41:06.750Z,184.97
2019-02-17T22:43:34.406Z,230.00
2019-02-17T22:46:02.094Z,298.73
2019-02-17T22:48:29.864Z,280.57
2019-02-17T22:50:57.888Z,317.63
2019-02-17T22:53:25.586Z,322.17
2019-02-17T22:55:53.694Z,359.63
2019-02-17T22:58:21.812Z,367.83
2019-02-17T23:00:59.616Z,476.47
2019-02-17T23:03:28.293Z,375.90
2019-02-17T23:05:55.983Z,327.60
2019-02-17T23:08:23.673Z,408.43
2019-02-17T23:10:51.438Z,386.33
2019-02-17T23:13:19.129Z,421.67
2019-02-17T23:15:47.196Z,328.70
2019-02-17T23:18:14.905Z,257.00
2019-02-17T23:20:42.950Z,247.63
2019-02-17T23:23:11.028Z,239.07
2019-02-17T23:25:38.700Z,235.40
2019-02-17T23:28:06.775Z,251.93
2019-02-17T23:30:34.477Z,239.17
2019-02-17T23:33:02.259Z,269.27
2019-02-17T23:35:30.009Z,246.63
2019-02-17T23:37:57.689Z,246.90
2019-02-17T23:40:25.779Z,315.30
2019-02-17T23:42:53.448Z,267.57
2019-02-17T23:45:21.556Z,210.93
2019-02-17T23:47:49.388Z,153.87
2019-02-17T23:50:17.034Z,171.53
2019-02-17T23:52:44.690Z,159.57
2019-02-17T23:55:12.630Z,133.50
2019-02-17T23:57:40.743Z,124.73
